sensor_id;sensor_type;location;lat;lon;timestamp;temperature;humidity
21037;DHT22;10677;50.942;4.028;2024-02-23T00:00:01;6.70;99.90
21037;DHT22;10677;50.942;4.028;2024-02-23T00:02:31;6.70;99.90
21037;DHT22;10677;50.942;4.028;2024-02-23T00:04:58;6.70;99.90
21037;DHT22;10677;50.942;4.028;2024-02-23T00:07:23;6.70;99.90
21037;DHT22;10677;50.942;4.028;2024-02-23T00:09:49;6.50;99.90
21037;DHT22;10677;50.942;4.028;2024-02-23T00:12:14;6.60;99.90
21037;DHT22;10677;50.942;4.028;2024-02-23T00:14:40;6.60;99.90
21037;DHT22;10677;50.942;4.028;2024-02-23T00:17:06;6.50;99.90
21037;DHT22;10677;50.942;4.028;2024-02-23T00:19:32;6.50;99.90
21037;DHT22;10677;50.942;4.028;2024-02-23T00:21:58;6.50;99.90
21037;DHT22;10677;50.942;4.028;2024-02-23T00:24:25;6.40;99.90
21037;DHT22;10677;50.942;4.028;2024-02-23T00:26:51;6.40;99.90
21037;DHT22;10677;50.942;4.028;2024-02-23T00:29:17;6.40;99.90
21037;DHT22;10677;50.942;4.028;2024-02-23T00:31:43;6.50;99.90
21037;DHT22;10677;50.942;4.028;2024-02-23T00:34:10;6.50;99.90
21037;DHT22;10677;50.942;4.028;2024-02-23T00:36:39;6.40;99.90
21037;DHT22;10677;50.942;4.028;2024-02-23T00:39:05;6.30;99.90
21037;DHT22;10677;50.942;4.028;2024-02-23T00:41:32;6.20;99.90
21037;DHT22;10677;50.942;4.028;2024-02-23T00:43:59;6.20;99.90
21037;DHT22;10677;50.942;4.028;2024-02-23T00:46:25;6.10;99.90
21037;DHT22;10677;50.942;4.028;2024-02-23T00:48:51;6.10;99.90
21037;DHT22;10677;50.942;4.028;2024-02-23T00:51:16;6.10;99.90
21037;DHT22;10677;50.942;4.028;2024-02-23T00:53:42;6.10;99.90
21037;DHT22;10677;50.942;4.028;2024-02-23T00:56:08;6.10;99.90
21037;DHT22;10677;50.942;4.028;2024-02-23T00:58:33;6.10;99.90
21037;DHT22;10677;50.942;4.028;2024-02-23T01:00:59;6.10;99.90
21037;DHT22;10677;50.942;4.028;2024-02-23T01:03:25;6.10;99.90
21037;DHT22;10677;50.942;4.028;2024-02-23T01:05:51;6.10;99.90
21037;DHT22;10677;50.942;4.028;2024-02-23T01:08:17;6.10;99.90
21037;DHT22;10677;50.942;4.028;2024-02-23T01:10:42;6.10;99.90
21037;DHT22;10677;50.942;4.028;2024-02-23T01:13:08;6.00;99.90
21037;DHT22;10677;50.942;4.028;2024-02-23T01:15:34;6.10;99.90
21037;DHT22;10677;50.942;4.028;2024-02-23T01:17:59;6.10;99.90
21037;DHT22;10677;50.942;4.028;2024-02-23T01:20:25;6.10;99.90
21037;DHT22;10677;50.942;4.028;2024-02-23T01:22:50;6.10;99.90
21037;DHT22;10677;50.942;4.028;2024-02-23T01:25:16;6.10;99.90
21037;DHT22;10677;50.942;4.028;2024-02-23T01:27:42;6.10;99.90
21037;DHT22;10677;50.942;4.028;2024-02-23T01:30:10;6.10;99.90
21037;DHT22;10677;50.942;4.028;2024-02-23T01:32:36;6.20;99.90
21037;DHT22;10677;50.942;4.028;2024-02-23T01:35:04;6.20;99.90
21037;DHT22;10677;50.942;4.028;2024-02-23T01:37:29;6.10;99.90
21037;DHT22;10677;50.942;4.028;2024-02-23T01:39:55;6.20;99.90
21037;DHT22;10677;50.942;4.028;2024-02-23T01:42:21;6.10;99.90
21037;DHT22;10677;50.942;4.028;2024-02-23T01:44:47;6.10;99.90
21037;DHT22;10677;50.942;4.028;2024-02-23T01:47:12;6.10;99.90
21037;DHT22;10677;50.942;4.028;2024-02-23T01:49:38;6.20;99.90
21037;DHT22;10677;50.942;4.028;2024-02-23T01:52:04;6.20;99.90
21037;DHT22;10677;50.942;4.028;2024-02-23T01:54:31;6.20;99.90
21037;DHT22;10677;50.942;4.028;2024-02-23T01:56:57;6.10;99.90
21037;DHT22;10677;50.942;4.028;2024-02-23T01:59:24;6.10;99.90
21037;DHT22;10677;50.942;4.028;2024-02-23T02:01:50;6.00;99.90
21037;DHT22;10677;50.942;4.028;2024-02-23T02:04:16;6.20;99.90
21037;DHT22;10677;50.942;4.028;2024-02-23T02:06:42;6.10;99.90
21037;DHT22;10677;50.942;4.028;2024-02-23T02:09:08;6.20;99.90
21037;DHT22;10677;50.942;4.028;2024-02-23T02:11:34;6.10;99.90
21037;DHT22;10677;50.942;4.028;2024-02-23T02:13:59;6.10;99.90
21037;DHT22;10677;50.942;4.028;2024-02-23T02:16:25;6.10;99.90
21037;DHT22;10677;50.942;4.028;2024-02-23T02:18:50;6.10;99.90
21037;DHT22;10677;50.942;4.028;2024-02-23T02:21:16;6.10;99.90
21037;DHT22;10677;50.942;4.028;2024-02-23T02:23:42;6.10;99.90
21037;DHT22;10677;50.942;4.028;2024-02-23T02:26:08;6.10;99.90
21037;DHT22;10677;50.942;4.028;2024-02-23T02:28:33;6.00;99.90
21037;DHT22;10677;50.942;4.028;2024-02-23T02:30:59;6.10;99.90
21037;DHT22;10677;50.942;4.028;2024-02-23T02:33:25;6.20;99.90
21037;DHT22;10677;50.942;4.028;2024-02-23T02:35:51;6.20;99.90
21037;DHT22;10677;50.942;4.028;2024-02-23T02:38:16;6.10;99.90
21037;DHT22;10677;50.942;4.028;2024-02-23T02:40:42;6.20;99.90
21037;DHT22;10677;50.942;4.028;2024-02-23T02:43:08;6.10;99.90
21037;DHT22;10677;50.942;4.028;2024-02-23T02:45:33;6.10;99.90
21037;DHT22;10677;50.942;4.028;2024-02-23T02:48:02;6.10;99.90
21037;DHT22;10677;50.942;4.028;2024-02-23T02:50:28;6.10;99.90
21037;DHT22;10677;50.942;4.028;2024-02-23T02:52:54;6.10;99.90
21037;DHT22;10677;50.942;4.028;2024-02-23T02:55:20;6.10;99.90
21037;DHT22;10677;50.942;4.028;2024-02-23T02:57:46;6.10;99.90
21037;DHT22;10677;50.942;4.028;2024-02-23T03:00:12;6.20;99.90
21037;DHT22;10677;50.942;4.028;2024-02-23T03:02:38;6.20;99.90
21037;DHT22;10677;50.942;4.028;2024-02-23T03:05:03;6.10;99.90
21037;DHT22;10677;50.942;4.028;2024-02-23T03:07:29;6.20;99.90
21037;DHT22;10677;50.942;4.028;2024-02-23T03:09:55;6.20;99.90
21037;DHT22;10677;50.942;4.028;2024-02-23T03:12:21;6.20;99.90
21037;DHT22;10677;50.942;4.028;2024-02-23T03:14:47;6.30;99.90
21037;DHT22;10677;50.942;4.028;2024-02-23T03:17:13;6.30;99.90
21037;DHT22;10677;50.942;4.028;2024-02-23T03:19:39;6.40;99.90
21037;DHT22;10677;50.942;4.028;2024-02-23T03:22:05;6.30;99.90
21037;DHT22;10677;50.942;4.028;2024-02-23T03:24:30;6.30;99.90
21037;DHT22;10677;50.942;4.028;2024-02-23T03:26:56;6.30;99.90
21037;DHT22;10677;50.942;4.028;2024-02-23T03:29:22;6.30;99.90
21037;DHT22;10677;50.942;4.028;2024-02-23T03:31:55;6.40;99.90
21037;DHT22;10677;50.942;4.028;2024-02-23T03:34:20;6.50;99.90
21037;DHT22;10677;50.942;4.028;2024-02-23T03:36:46;6.50;99.90
21037;DHT22;10677;50.942;4.028;2024-02-23T03:39:12;6.60;99.90
21037;DHT22;10677;50.942;4.028;2024-02-23T03:41:37;6.60;99.90
21037;DHT22;10677;50.942;4.028;2024-02-23T03:44:03;6.60;99.90
21037;DHT22;10677;50.942;4.028;2024-02-23T03:46:28;6.60;99.90
21037;DHT22;10677;50.942;4.028;2024-02-23T03:48:54;6.60;99.90
21037;DHT22;10677;50.942;4.028;2024-02-23T03:51:20;6.60;99.90
21037;DHT22;10677;50.942;4.028;2024-02-23T03:53:45;6.50;99.90
21037;DHT22;10677;50.942;4.028;2024-02-23T03:56:12;6.50;99.90
21037;DHT22;10677;50.942;4.028;2024-02-23T03:58:37;6.50;99.90
21037;DHT22;10677;50.942;4.028;2024-02-23T04:01:03;6.50;99.90
21037;DHT22;10677;50.942;4.028;2024-02-23T04:03:29;6.50;99.90
21037;DHT22;10677;50.942;4.028;2024-02-23T04:05:54;6.60;99.90
21037;DHT22;10677;50.942;4.028;2024-02-23T04:08:20;6.50;99.90
21037;DHT22;10677;50.942;4.028;2024-02-23T04:10:46;6.50;99.90
21037;DHT22;10677;50.942;4.028;2024-02-23T04:13:11;6.60;99.90
21037;DHT22;10677;50.942;4.028;2024-02-23T04:15:39;6.50;99.90
21037;DHT22;10677;50.942;4.028;2024-02-23T04:18:05;6.50;99.90
21037;DHT22;10677;50.942;4.028;2024-02-23T04:20:31;6.40;99.90
21037;DHT22;10677;50.942;4.028;2024-02-23T04:22:58;6.40;99.90
21037;DHT22;10677;50.942;4.028;2024-02-23T04:25:24;6.40;99.90
21037;DHT22;10677;50.942;4.028;2024-02-23T04:27:49;6.30;99.90
21037;DHT22;10677;50.942;4.028;2024-02-23T04:30:15;6.40;99.90
21037;DHT22;10677;50.942;4.028;2024-02-23T04:32:40;6.30;99.90
21037;DHT22;10677;50.942;4.028;2024-02-23T04:35:07;6.20;99.90
21037;DHT22;10677;50.942;4.028;2024-02-23T04:37:34;6.20;99.90
21037;DHT22;10677;50.942;4.028;2024-02-23T04:40:00;6.40;99.90
21037;DHT22;10677;50.942;4.028;2024-02-23T04:42:26;6.30;99.90
21037;DHT22;10677;50.942;4.028;2024-02-23T04:44:53;6.30;99.90
21037;DHT22;10677;50.942;4.028;2024-02-23T04:47:20;6.30;99.90
21037;DHT22;10677;50.942;4.028;2024-02-23T04:49:46;6.30;99.90
21037;DHT22;10677;50.942;4.028;2024-02-23T04:52:12;6.40;99.90
21037;DHT22;10677;50.942;4.028;2024-02-23T04:54:37;6.40;99.90
21037;DHT22;10677;50.942;4.028;2024-02-23T04:57:03;6.40;99.90
21037;DHT22;10677;50.942;4.028;2024-02-23T04:59:29;6.50;99.90
21037;DHT22;10677;50.942;4.028;2024-02-23T05:01:57;6.50;99.90
21037;DHT22;10677;50.942;4.028;2024-02-23T05:04:23;6.60;99.90
21037;DHT22;10677;50.942;4.028;2024-02-23T05:06:48;6.60;99.90
21037;DHT22;10677;50.942;4.028;2024-02-23T05:09:14;6.80;99.90
21037;DHT22;10677;50.942;4.028;2024-02-23T05:11:39;6.60;99.90
21037;DHT22;10677;50.942;4.028;2024-02-23T05:14:05;6.50;99.90
21037;DHT22;10677;50.942;4.028;2024-02-23T05:16:31;6.50;99.90
21037;DHT22;10677;50.942;4.028;2024-02-23T05:18:57;6.40;99.90
21037;DHT22;10677;50.942;4.028;2024-02-23T05:21:22;6.40;99.90
21037;DHT22;10677;50.942;4.028;2024-02-23T05:23:48;6.40;99.90
21037;DHT22;10677;50.942;4.028;2024-02-23T05:26:14;6.30;99.90
21037;DHT22;10677;50.942;4.028;2024-02-23T05:28:39;6.30;99.90
21037;DHT22;10677;50.942;4.028;2024-02-23T05:31:05;6.30;99.90
21037;DHT22;10677;50.942;4.028;2024-02-23T05:33:30;6.30;99.90
21037;DHT22;10677;50.942;4.028;2024-02-23T05:35:56;6.30;99.90
21037;DHT22;10677;50.942;4.028;2024-02-23T05:38:22;6.30;99.90
21037;DHT22;10677;50.942;4.028;2024-02-23T05:40:47;6.30;99.90
21037;DHT22;10677;50.942;4.028;2024-02-23T05:43:14;6.40;99.90
21037;DHT22;10677;50.942;4.028;2024-02-23T05:45:40;6.40;99.90
21037;DHT22;10677;50.942;4.028;2024-02-23T05:48:06;6.40;99.90
21037;DHT22;10677;50.942;4.028;2024-02-23T05:50:32;6.40;99.90
21037;DHT22;10677;50.942;4.028;2024-02-23T05:52:57;6.40;99.90
21037;DHT22;10677;50.942;4.028;2024-02-23T05:55:23;6.30;99.90
21037;DHT22;10677;50.942;4.028;2024-02-23T05:57:49;6.40;99.90
21037;DHT22;10677;50.942;4.028;2024-02-23T06:00:16;6.40;99.90
21037;DHT22;10677;50.942;4.028;2024-02-23T06:02:44;6.30;99.90
21037;DHT22;10677;50.942;4.028;2024-02-23T06:05:12;6.40;99.90
21037;DHT22;10677;50.942;4.028;2024-02-23T06:07:37;6.40;99.90
21037;DHT22;10677;50.942;4.028;2024-02-23T06:10:04;6.40;99.90
21037;DHT22;10677;50.942;4.028;2024-02-23T06:12:30;6.40;99.90
21037;DHT22;10677;50.942;4.028;2024-02-23T06:14:56;6.40;99.90
21037;DHT22;10677;50.942;4.028;2024-02-23T06:17:23;6.40;99.90
21037;DHT22;10677;50.942;4.028;2024-02-23T06:19:49;6.50;99.90
21037;DHT22;10677;50.942;4.028;2024-02-23T06:22:16;6.50;99.90
21037;DHT22;10677;50.942;4.028;2024-02-23T06:24:49;6.60;99.90
21037;DHT22;10677;50.942;4.028;2024-02-23T06:27:14;6.70;99.90
21037;DHT22;10677;50.942;4.028;2024-02-23T06:29:40;6.50;99.90
21037;DHT22;10677;50.942;4.028;2024-02-23T06:32:06;6.60;99.90
21037;DHT22;10677;50.942;4.028;2024-02-23T06:34:31;6.60;99.90
21037;DHT22;10677;50.942;4.028;2024-02-23T06:36:57;6.60;99.90
21037;DHT22;10677;50.942;4.028;2024-02-23T06:39:23;6.60;99.90
21037;DHT22;10677;50.942;4.028;2024-02-23T06:41:49;6.50;99.90
21037;DHT22;10677;50.942;4.028;2024-02-23T06:44:15;6.60;99.90
21037;DHT22;10677;50.942;4.028;2024-02-23T06:46:41;6.50;99.90
21037;DHT22;10677;50.942;4.028;2024-02-23T06:49:07;6.50;99.90
21037;DHT22;10677;50.942;4.028;2024-02-23T06:51:33;6.60;99.90
21037;DHT22;10677;50.942;4.028;2024-02-23T06:53:59;6.70;99.90
21037;DHT22;10677;50.942;4.028;2024-02-23T06:56:25;6.70;99.90
21037;DHT22;10677;50.942;4.028;2024-02-23T06:58:50;6.70;99.90
21037;DHT22;10677;50.942;4.028;2024-02-23T07:01:16;6.80;99.90
21037;DHT22;10677;50.942;4.028;2024-02-23T07:03:42;6.80;99.90
21037;DHT22;10677;50.942;4.028;2024-02-23T07:06:10;6.90;99.90
21037;DHT22;10677;50.942;4.028;2024-02-23T07:08:36;6.80;99.90
21037;DHT22;10677;50.942;4.028;2024-02-23T07:11:02;6.80;99.90
21037;DHT22;10677;50.942;4.028;2024-02-23T07:13:28;6.90;99.90
21037;DHT22;10677;50.942;4.028;2024-02-23T07:15:53;6.90;99.90
21037;DHT22;10677;50.942;4.028;2024-02-23T07:18:21;7.00;99.90
21037;DHT22;10677;50.942;4.028;2024-02-23T07:20:47;7.00;99.90
21037;DHT22;10677;50.942;4.028;2024-02-23T07:23:13;7.00;99.90
21037;DHT22;10677;50.942;4.028;2024-02-23T07:25:41;7.10;99.90
21037;DHT22;10677;50.942;4.028;2024-02-23T07:28:07;7.00;99.90
21037;DHT22;10677;50.942;4.028;2024-02-23T07:30:33;7.20;99.90
21037;DHT22;10677;50.942;4.028;2024-02-23T07:33:00;7.20;99.90
21037;DHT22;10677;50.942;4.028;2024-02-23T07:35:26;7.30;99.90
21037;DHT22;10677;50.942;4.028;2024-02-23T07:37:52;7.40;99.90
21037;DHT22;10677;50.942;4.028;2024-02-23T07:40:18;7.40;99.90
21037;DHT22;10677;50.942;4.028;2024-02-23T07:42:43;7.40;99.90
21037;DHT22;10677;50.942;4.028;2024-02-23T07:45:09;7.40;99.90
21037;DHT22;10677;50.942;4.028;2024-02-23T07:47:36;7.30;99.90
21037;DHT22;10677;50.942;4.028;2024-02-23T07:50:02;7.20;99.90
21037;DHT22;10677;50.942;4.028;2024-02-23T07:52:28;7.10;99.90
21037;DHT22;10677;50.942;4.028;2024-02-23T07:54:54;7.10;99.90
21037;DHT22;10677;50.942;4.028;2024-02-23T07:57:22;7.00;99.90
21037;DHT22;10677;50.942;4.028;2024-02-23T07:59:52;7.10;99.90
21037;DHT22;10677;50.942;4.028;2024-02-23T08:02:18;7.00;99.90
21037;DHT22;10677;50.942;4.028;2024-02-23T08:04:44;6.90;99.90
21037;DHT22;10677;50.942;4.028;2024-02-23T08:07:13;6.90;99.90
21037;DHT22;10677;50.942;4.028;2024-02-23T08:09:38;6.80;99.90
21037;DHT22;10677;50.942;4.028;2024-02-23T08:12:05;6.80;99.90
21037;DHT22;10677;50.942;4.028;2024-02-23T08:14:30;6.80;99.90
21037;DHT22;10677;50.942;4.028;2024-02-23T08:16:56;6.90;99.90
21037;DHT22;10677;50.942;4.028;2024-02-23T08:19:22;6.90;99.90
21037;DHT22;10677;50.942;4.028;2024-02-23T08:21:47;7.10;99.90
21037;DHT22;10677;50.942;4.028;2024-02-23T08:24:13;7.00;99.90
21037;DHT22;10677;50.942;4.028;2024-02-23T08:26:39;6.90;99.90
21037;DHT22;10677;50.942;4.028;2024-02-23T08:29:06;7.00;99.90
21037;DHT22;10677;50.942;4.028;2024-02-23T08:31:32;7.10;99.90
21037;DHT22;10677;50.942;4.028;2024-02-23T08:33:57;7.10;99.90
21037;DHT22;10677;50.942;4.028;2024-02-23T08:36:23;7.20;99.90
21037;DHT22;10677;50.942;4.028;2024-02-23T08:38:48;7.20;99.90
21037;DHT22;10677;50.942;4.028;2024-02-23T08:41:14;7.20;99.90
21037;DHT22;10677;50.942;4.028;2024-02-23T08:43:40;7.20;99.90
21037;DHT22;10677;50.942;4.028;2024-02-23T08:46:06;7.20;99.90
21037;DHT22;10677;50.942;4.028;2024-02-23T08:48:31;7.20;99.90
21037;DHT22;10677;50.942;4.028;2024-02-23T08:50:57;7.20;99.90
21037;DHT22;10677;50.942;4.028;2024-02-23T08:53:32;7.20;99.90
21037;DHT22;10677;50.942;4.028;2024-02-23T08:55:58;7.20;99.90
21037;DHT22;10677;50.942;4.028;2024-02-23T08:58:24;7.30;99.90
21037;DHT22;10677;50.942;4.028;2024-02-23T09:00:49;7.40;99.90
21037;DHT22;10677;50.942;4.028;2024-02-23T09:03:15;7.40;99.90
21037;DHT22;10677;50.942;4.028;2024-02-23T09:05:41;7.40;99.90
21037;DHT22;10677;50.942;4.028;2024-02-23T09:08:07;7.50;99.90
21037;DHT22;10677;50.942;4.028;2024-02-23T09:10:32;7.40;99.90
21037;DHT22;10677;50.942;4.028;2024-02-23T09:12:58;7.30;99.90
21037;DHT22;10677;50.942;4.028;2024-02-23T09:15:23;7.50;99.90
21037;DHT22;10677;50.942;4.028;2024-02-23T09:17:49;7.50;99.90
21037;DHT22;10677;50.942;4.028;2024-02-23T09:20:16;7.60;99.90
21037;DHT22;10677;50.942;4.028;2024-02-23T09:22:41;7.60;99.90
21037;DHT22;10677;50.942;4.028;2024-02-23T09:25:07;7.70;99.90
21037;DHT22;10677;50.942;4.028;2024-02-23T09:27:33;7.70;99.90
21037;DHT22;10677;50.942;4.028;2024-02-23T09:30:02;7.80;99.90
21037;DHT22;10677;50.942;4.028;2024-02-23T09:32:28;8.00;99.90
21037;DHT22;10677;50.942;4.028;2024-02-23T09:34:54;8.10;99.90
21037;DHT22;10677;50.942;4.028;2024-02-23T09:37:19;8.20;99.90
21037;DHT22;10677;50.942;4.028;2024-02-23T09:39:45;8.10;99.90
21037;DHT22;10677;50.942;4.028;2024-02-23T09:42:11;8.20;99.90
21037;DHT22;10677;50.942;4.028;2024-02-23T09:44:41;8.20;99.90
21037;DHT22;10677;50.942;4.028;2024-02-23T09:47:08;8.40;99.90
21037;DHT22;10677;50.942;4.028;2024-02-23T09:49:40;8.50;99.90
21037;DHT22;10677;50.942;4.028;2024-02-23T09:52:09;8.60;99.90
21037;DHT22;10677;50.942;4.028;2024-02-23T09:54:37;8.60;99.90
21037;DHT22;10677;50.942;4.028;2024-02-23T09:57:08;8.60;99.90
21037;DHT22;10677;50.942;4.028;2024-02-23T09:59:35;8.60;99.90
21037;DHT22;10677;50.942;4.028;2024-02-23T10:02:03;8.70;99.90
21037;DHT22;10677;50.942;4.028;2024-02-23T10:04:30;8.70;99.90
21037;DHT22;10677;50.942;4.028;2024-02-23T10:06:57;8.70;99.90
21037;DHT22;10677;50.942;4.028;2024-02-23T10:09:23;8.60;99.90
21037;DHT22;10677;50.942;4.028;2024-02-23T10:11:55;8.50;99.90
21037;DHT22;10677;50.942;4.028;2024-02-23T10:14:21;8.40;99.90
21037;DHT22;10677;50.942;4.028;2024-02-23T10:16:47;8.30;99.90
21037;DHT22;10677;50.942;4.028;2024-02-23T10:19:13;8.20;99.90
21037;DHT22;10677;50.942;4.028;2024-02-23T10:21:39;8.30;99.90
21037;DHT22;10677;50.942;4.028;2024-02-23T10:24:05;8.40;99.90
21037;DHT22;10677;50.942;4.028;2024-02-23T10:26:31;8.20;99.90
21037;DHT22;10677;50.942;4.028;2024-02-23T10:28:57;8.30;99.90
21037;DHT22;10677;50.942;4.028;2024-02-23T10:31:24;8.20;99.90
21037;DHT22;10677;50.942;4.028;2024-02-23T10:33:50;8.30;99.90
21037;DHT22;10677;50.942;4.028;2024-02-23T10:36:18;8.40;99.90
21037;DHT22;10677;50.942;4.028;2024-02-23T10:38:48;8.40;99.90
21037;DHT22;10677;50.942;4.028;2024-02-23T10:41:17;8.50;99.90
21037;DHT22;10677;50.942;4.028;2024-02-23T10:43:48;8.50;99.90
21037;DHT22;10677;50.942;4.028;2024-02-23T10:46:14;8.60;99.90
21037;DHT22;10677;50.942;4.028;2024-02-23T10:48:44;8.70;99.90
21037;DHT22;10677;50.942;4.028;2024-02-23T10:51:14;8.70;99.90
21037;DHT22;10677;50.942;4.028;2024-02-23T10:53:40;8.70;99.90
21037;DHT22;10677;50.942;4.028;2024-02-23T10:56:07;8.80;99.90
21037;DHT22;10677;50.942;4.028;2024-02-23T10:58:33;8.80;99.90
21037;DHT22;10677;50.942;4.028;2024-02-23T11:01:01;8.80;99.90
21037;DHT22;10677;50.942;4.028;2024-02-23T11:03:32;9.00;99.90
21037;DHT22;10677;50.942;4.028;2024-02-23T11:06:02;9.20;99.90
21037;DHT22;10677;50.942;4.028;2024-02-23T11:08:28;9.30;99.90
21037;DHT22;10677;50.942;4.028;2024-02-23T11:10:54;9.40;99.90
21037;DHT22;10677;50.942;4.028;2024-02-23T11:13:52;9.50;99.90
21037;DHT22;10677;50.942;4.028;2024-02-23T11:16:22;9.60;99.90
21037;DHT22;10677;50.942;4.028;2024-02-23T11:19:04;9.50;99.90
21037;DHT22;10677;50.942;4.028;2024-02-23T11:21:34;9.60;99.90
21037;DHT22;10677;50.942;4.028;2024-02-23T11:24:03;9.60;99.90
21037;DHT22;10677;50.942;4.028;2024-02-23T11:26:29;9.70;99.90
21037;DHT22;10677;50.942;4.028;2024-02-23T11:28:56;9.60;99.90
21037;DHT22;10677;50.942;4.028;2024-02-23T11:31:25;9.60;99.90
21037;DHT22;10677;50.942;4.028;2024-02-23T11:33:55;9.30;99.90
21037;DHT22;10677;50.942;4.028;2024-02-23T11:36:28;9.30;99.90
21037;DHT22;10677;50.942;4.028;2024-02-23T11:38:56;9.30;99.90
21037;DHT22;10677;50.942;4.028;2024-02-23T11:41:23;9.50;99.90
21037;DHT22;10677;50.942;4.028;2024-02-23T11:43:49;9.30;99.90
21037;DHT22;10677;50.942;4.028;2024-02-23T11:46:16;9.10;99.90
21037;DHT22;10677;50.942;4.028;2024-02-23T11:48:42;9.20;99.90
21037;DHT22;10677;50.942;4.028;2024-02-23T11:51:10;9.20;99.90
21037;DHT22;10677;50.942;4.028;2024-02-23T11:53:39;9.30;99.90
21037;DHT22;10677;50.942;4.028;2024-02-23T11:56:05;9.30;99.90
21037;DHT22;10677;50.942;4.028;2024-02-23T11:58:32;9.40;99.90
21037;DHT22;10677;50.942;4.028;2024-02-23T12:01:02;9.60;99.90
21037;DHT22;10677;50.942;4.028;2024-02-23T12:03:31;9.80;99.90
21037;DHT22;10677;50.942;4.028;2024-02-23T12:06:00;9.80;99.90
21037;DHT22;10677;50.942;4.028;2024-02-23T12:08:27;9.80;99.90
21037;DHT22;10677;50.942;4.028;2024-02-23T12:10:57;9.70;99.90
21037;DHT22;10677;50.942;4.028;2024-02-23T12:13:26;9.50;99.90
21037;DHT22;10677;50.942;4.028;2024-02-23T12:15:55;9.50;99.90
21037;DHT22;10677;50.942;4.028;2024-02-23T12:18:22;9.50;99.90
21037;DHT22;10677;50.942;4.028;2024-02-23T12:23:43;9.20;99.90
21037;DHT22;10677;50.942;4.028;2024-02-23T12:26:11;9.10;99.90
21037;DHT22;10677;50.942;4.028;2024-02-23T12:28:39;9.10;99.90
21037;DHT22;10677;50.942;4.028;2024-02-23T12:31:05;9.20;99.90
21037;DHT22;10677;50.942;4.028;2024-02-23T12:33:32;9.20;99.90
21037;DHT22;10677;50.942;4.028;2024-02-23T12:35:59;9.30;99.90
21037;DHT22;10677;50.942;4.028;2024-02-23T12:38:25;9.20;99.90
21037;DHT22;10677;50.942;4.028;2024-02-23T12:40:53;9.30;99.90
21037;DHT22;10677;50.942;4.028;2024-02-23T12:43:18;9.40;99.90
21037;DHT22;10677;50.942;4.028;2024-02-23T12:45:47;9.50;99.90
21037;DHT22;10677;50.942;4.028;2024-02-23T12:48:17;9.50;99.90
21037;DHT22;10677;50.942;4.028;2024-02-23T12:50:43;9.60;99.90
21037;DHT22;10677;50.942;4.028;2024-02-23T12:55:54;9.80;99.90
21037;DHT22;10677;50.942;4.028;2024-02-23T12:58:20;10.00;99.90
21037;DHT22;10677;50.942;4.028;2024-02-23T13:00:47;9.90;99.90
21037;DHT22;10677;50.942;4.028;2024-02-23T13:03:12;10.10;99.90
21037;DHT22;10677;50.942;4.028;2024-02-23T13:05:38;10.30;99.90
21037;DHT22;10677;50.942;4.028;2024-02-23T13:08:04;10.50;99.90
21037;DHT22;10677;50.942;4.028;2024-02-23T13:10:29;10.40;99.90
21037;DHT22;10677;50.942;4.028;2024-02-23T13:12:55;10.50;99.90
21037;DHT22;10677;50.942;4.028;2024-02-23T13:15:21;10.50;99.90
21037;DHT22;10677;50.942;4.028;2024-02-23T13:17:46;10.50;99.90
21037;DHT22;10677;50.942;4.028;2024-02-23T13:20:12;10.50;99.90
21037;DHT22;10677;50.942;4.028;2024-02-23T13:22:38;10.40;99.90
21037;DHT22;10677;50.942;4.028;2024-02-23T13:25:04;10.30;99.90
21037;DHT22;10677;50.942;4.028;2024-02-23T13:27:32;10.30;99.90
21037;DHT22;10677;50.942;4.028;2024-02-23T13:30:03;10.40;99.90
21037;DHT22;10677;50.942;4.028;2024-02-23T13:32:29;10.50;99.90
21037;DHT22;10677;50.942;4.028;2024-02-23T13:34:54;10.50;99.90
21037;DHT22;10677;50.942;4.028;2024-02-23T13:37:21;10.70;99.90
21037;DHT22;10677;50.942;4.028;2024-02-23T13:39:47;11.00;99.90
21037;DHT22;10677;50.942;4.028;2024-02-23T13:42:14;11.10;99.90
21037;DHT22;10677;50.942;4.028;2024-02-23T13:44:39;11.10;99.90
21037;DHT22;10677;50.942;4.028;2024-02-23T13:47:05;11.20;99.90
21037;DHT22;10677;50.942;4.028;2024-02-23T13:49:31;11.00;99.90
21037;DHT22;10677;50.942;4.028;2024-02-23T13:51:56;11.10;99.90
21037;DHT22;10677;50.942;4.028;2024-02-23T13:54:22;11.30;99.90
21037;DHT22;10677;50.942;4.028;2024-02-23T13:56:48;11.40;99.90
21037;DHT22;10677;50.942;4.028;2024-02-23T13:59:14;11.50;99.90
21037;DHT22;10677;50.942;4.028;2024-02-23T14:01:39;11.50;99.90
21037;DHT22;10677;50.942;4.028;2024-02-23T14:04:07;11.40;99.90
21037;DHT22;10677;50.942;4.028;2024-02-23T14:06:33;11.10;99.90
21037;DHT22;10677;50.942;4.028;2024-02-23T14:08:59;11.20;99.90
21037;DHT22;10677;50.942;4.028;2024-02-23T14:11:25;11.40;99.90
21037;DHT22;10677;50.942;4.028;2024-02-23T14:13:51;11.60;99.90
21037;DHT22;10677;50.942;4.028;2024-02-23T14:16:17;11.60;99.90
21037;DHT22;10677;50.942;4.028;2024-02-23T14:18:42;11.40;99.90
21037;DHT22;10677;50.942;4.028;2024-02-23T14:21:10;11.30;99.90
21037;DHT22;10677;50.942;4.028;2024-02-23T14:23:36;11.50;99.90
21037;DHT22;10677;50.942;4.028;2024-02-23T14:26:05;11.50;99.90
21037;DHT22;10677;50.942;4.028;2024-02-23T14:28:31;11.50;99.90
21037;DHT22;10677;50.942;4.028;2024-02-23T14:30:57;11.40;99.90
21037;DHT22;10677;50.942;4.028;2024-02-23T14:33:22;11.30;99.90
21037;DHT22;10677;50.942;4.028;2024-02-23T14:35:48;11.70;99.90
21037;DHT22;10677;50.942;4.028;2024-02-23T14:38:15;12.30;99.90
21037;DHT22;10677;50.942;4.028;2024-02-23T14:40:42;12.80;99.90
21037;DHT22;10677;50.942;4.028;2024-02-23T14:43:07;13.50;99.90
21037;DHT22;10677;50.942;4.028;2024-02-23T14:45:33;13.10;99.90
21037;DHT22;10677;50.942;4.028;2024-02-23T14:47:59;13.40;99.90
21037;DHT22;10677;50.942;4.028;2024-02-23T14:50:24;13.20;99.90
21037;DHT22;10677;50.942;4.028;2024-02-23T14:52:51;13.00;99.90
21037;DHT22;10677;50.942;4.028;2024-02-23T14:55:18;12.90;99.90
21037;DHT22;10677;50.942;4.028;2024-02-23T14:57:44;12.30;99.90
21037;DHT22;10677;50.942;4.028;2024-02-23T15:00:10;11.90;99.90
21037;DHT22;10677;50.942;4.028;2024-02-23T15:02:36;11.30;99.90
21037;DHT22;10677;50.942;4.028;2024-02-23T15:05:01;11.10;99.90
21037;DHT22;10677;50.942;4.028;2024-02-23T15:07:27;10.80;99.90
21037;DHT22;10677;50.942;4.028;2024-02-23T15:09:53;10.60;99.90
21037;DHT22;10677;50.942;4.028;2024-02-23T15:12:19;10.50;99.90
21037;DHT22;10677;50.942;4.028;2024-02-23T15:14:48;10.50;99.90
21037;DHT22;10677;50.942;4.028;2024-02-23T15:17:14;10.50;99.90
21037;DHT22;10677;50.942;4.028;2024-02-23T15:19:40;10.40;99.90
21037;DHT22;10677;50.942;4.028;2024-02-23T15:22:07;10.20;99.90
21037;DHT22;10677;50.942;4.028;2024-02-23T15:24:34;10.00;99.90
21037;DHT22;10677;50.942;4.028;2024-02-23T15:27:00;9.80;99.90
21037;DHT22;10677;50.942;4.028;2024-02-23T15:29:25;9.80;99.90
21037;DHT22;10677;50.942;4.028;2024-02-23T15:31:51;10.00;99.90
21037;DHT22;10677;50.942;4.028;2024-02-23T15:34:17;10.50;99.90
21037;DHT22;10677;50.942;4.028;2024-02-23T15:36:43;11.20;99.90
21037;DHT22;10677;50.942;4.028;2024-02-23T15:39:08;11.90;99.90
21037;DHT22;10677;50.942;4.028;2024-02-23T15:41:34;12.60;99.90